sensor_id;sensor_type;location;lat;lon;timestamp;P1;durP1;ratioP1;P2;durP2;ratioP2
66342;SDS011;53144;51.524;5.080;2024-01-10T00:01:13;4.72;;;3.33;;
66342;SDS011;53144;51.524;5.080;2024-01-10T00:03:39;4.07;;;3.45;;
66342;SDS011;53144;51.524;5.080;2024-01-10T00:06:05;4.85;;;3.85;;
66342;SDS011;53144;51.524;5.080;2024-01-10T00:08:30;5.03;;;3.35;;
66342;SDS011;53144;51.524;5.080;2024-01-10T00:10:56;3.35;;;3.08;;
66342;SDS011;53144;51.524;5.080;2024-01-10T00:13:21;3.00;;;2.80;;
66342;SDS011;53144;51.524;5.080;2024-01-10T00:15:47;3.20;;;2.90;;
66342;SDS011;53144;51.524;5.080;2024-01-10T00:18:14;3.38;;;2.90;;
66342;SDS011;53144;51.524;5.080;2024-01-10T00:20:39;3.95;;;3.47;;
66342;SDS011;53144;51.524;5.080;2024-01-10T00:23:05;3.30;;;2.90;;
66342;SDS011;53144;51.524;5.080;2024-01-10T00:25:31;3.13;;;2.83;;
66342;SDS011;53144;51.524;5.080;2024-01-10T00:27:57;3.90;;;3.17;;
66342;SDS011;53144;51.524;5.080;2024-01-10T00:30:23;4.40;;;3.30;;
66342;SDS011;53144;51.524;5.080;2024-01-10T00:32:51;3.78;;;2.90;;
66342;SDS011;53144;51.524;5.080;2024-01-10T00:35:16;4.60;;;4.20;;
66342;SDS011;53144;51.524;5.080;2024-01-10T00:37:42;4.20;;;3.38;;
66342;SDS011;53144;51.524;5.080;2024-01-10T00:40:07;4.53;;;3.90;;
66342;SDS011;53144;51.524;5.080;2024-01-10T00:42:36;4.47;;;3.03;;
66342;SDS011;53144;51.524;5.080;2024-01-10T00:45:01;4.93;;;3.22;;
66342;SDS011;53144;51.524;5.080;2024-01-10T00:47:27;4.43;;;3.50;;
66342;SDS011;53144;51.524;5.080;2024-01-10T00:49:52;4.28;;;3.17;;
66342;SDS011;53144;51.524;5.080;2024-01-10T00:52:18;6.10;;;3.53;;
66342;SDS011;53144;51.524;5.080;2024-01-10T00:57:11;4.95;;;3.40;;
66342;SDS011;53144;51.524;5.080;2024-01-10T00:59:36;3.95;;;3.50;;
66342;SDS011;53144;51.524;5.080;2024-01-10T01:02:02;4.63;;;3.15;;
66342;SDS011;53144;51.524;5.080;2024-01-10T01:04:27;4.97;;;3.42;;
66342;SDS011;53144;51.524;5.080;2024-01-10T01:06:53;4.30;;;3.10;;
66342;SDS011;53144;51.524;5.080;2024-01-10T01:09:19;5.38;;;3.33;;
66342;SDS011;53144;51.524;5.080;2024-01-10T01:11:44;5.50;;;3.58;;
66342;SDS011;53144;51.524;5.080;2024-01-10T01:14:11;4.03;;;3.40;;
66342;SDS011;53144;51.524;5.080;2024-01-10T01:16:36;4.13;;;3.22;;
66342;SDS011;53144;51.524;5.080;2024-01-10T01:19:02;4.82;;;3.00;;
66342;SDS011;53144;51.524;5.080;2024-01-10T01:21:27;3.53;;;3.05;;
66342;SDS011;53144;51.524;5.080;2024-01-10T01:23:53;4.53;;;3.22;;
66342;SDS011;53144;51.524;5.080;2024-01-10T01:26:19;3.47;;;2.90;;
66342;SDS011;53144;51.524;5.080;2024-01-10T01:28:45;5.30;;;3.35;;
66342;SDS011;53144;51.524;5.080;2024-01-10T01:31:10;4.65;;;3.33;;
66342;SDS011;53144;51.524;5.080;2024-01-10T01:33:36;4.20;;;3.20;;
66342;SDS011;53144;51.524;5.080;2024-01-10T01:36:01;5.68;;;3.30;;
66342;SDS011;53144;51.524;5.080;2024-01-10T01:38:27;3.95;;;3.47;;
66342;SDS011;53144;51.524;5.080;2024-01-10T01:40:52;5.22;;;3.15;;
66342;SDS011;53144;51.524;5.080;2024-01-10T01:43:25;4.22;;;3.20;;
66342;SDS011;53144;51.524;5.080;2024-01-10T01:45:54;3.80;;;3.25;;
66342;SDS011;53144;51.524;5.080;2024-01-10T01:48:20;4.18;;;3.20;;
66342;SDS011;53144;51.524;5.080;2024-01-10T01:50:48;3.67;;;3.05;;
66342;SDS011;53144;51.524;5.080;2024-01-10T01:53:21;3.88;;;3.20;;
66342;SDS011;53144;51.524;5.080;2024-01-10T01:55:47;4.32;;;3.25;;
66342;SDS011;53144;51.524;5.080;2024-01-10T01:58:13;3.70;;;3.28;;
66342;SDS011;53144;51.524;5.080;2024-01-10T02:00:39;4.65;;;3.08;;
66342;SDS011;53144;51.524;5.080;2024-01-10T02:03:05;5.53;;;3.53;;
66342;SDS011;53144;51.524;5.080;2024-01-10T02:05:31;4.32;;;3.35;;
66342;SDS011;53144;51.524;5.080;2024-01-10T02:07:57;3.08;;;2.55;;
66342;SDS011;53144;51.524;5.080;2024-01-10T02:10:23;5.40;;;3.47;;
66342;SDS011;53144;51.524;5.080;2024-01-10T02:12:49;4.32;;;3.15;;
66342;SDS011;53144;51.524;5.080;2024-01-10T02:15:20;3.50;;;3.03;;
66342;SDS011;53144;51.524;5.080;2024-01-10T02:17:46;4.32;;;3.63;;
66342;SDS011;53144;51.524;5.080;2024-01-10T02:20:12;4.93;;;3.38;;
66342;SDS011;53144;51.524;5.080;2024-01-10T02:22:39;4.85;;;3.30;;
66342;SDS011;53144;51.524;5.080;2024-01-10T02:25:08;3.90;;;3.15;;
66342;SDS011;53144;51.524;5.080;2024-01-10T02:27:35;5.10;;;3.50;;
66342;SDS011;53144;51.524;5.080;2024-01-10T02:30:04;5.93;;;3.20;;
66342;SDS011;53144;51.524;5.080;2024-01-10T02:32:31;5.40;;;3.17;;
66342;SDS011;53144;51.524;5.080;2024-01-10T02:34:57;4.57;;;3.35;;
66342;SDS011;53144;51.524;5.080;2024-01-10T02:37:23;4.68;;;3.40;;
66342;SDS011;53144;51.524;5.080;2024-01-10T02:39:49;4.03;;;2.92;;
66342;SDS011;53144;51.524;5.080;2024-01-10T02:42:15;5.35;;;3.50;;
66342;SDS011;53144;51.524;5.080;2024-01-10T02:44:43;4.53;;;2.83;;
66342;SDS011;53144;51.524;5.080;2024-01-10T02:47:09;4.28;;;3.65;;
66342;SDS011;53144;51.524;5.080;2024-01-10T02:49:36;4.80;;;3.10;;
66342;SDS011;53144;51.524;5.080;2024-01-10T02:52:01;4.05;;;3.20;;
66342;SDS011;53144;51.524;5.080;2024-01-10T02:54:27;4.28;;;3.15;;
66342;SDS011;53144;51.524;5.080;2024-01-10T02:56:52;4.55;;;3.78;;
66342;SDS011;53144;51.524;5.080;2024-01-10T02:59:21;4.78;;;2.97;;
66342;SDS011;53144;51.524;5.080;2024-01-10T03:01:46;5.50;;;3.38;;
66342;SDS011;53144;51.524;5.080;2024-01-10T03:04:12;5.00;;;3.13;;
66342;SDS011;53144;51.524;5.080;2024-01-10T03:06:37;3.92;;;3.28;;
66342;SDS011;53144;51.524;5.080;2024-01-10T03:09:03;3.38;;;3.08;;
66342;SDS011;53144;51.524;5.080;2024-01-10T03:15:10;5.63;;;3.33;;
66342;SDS011;53144;51.524;5.080;2024-01-10T03:17:36;3.63;;;3.10;;
66342;SDS011;53144;51.524;5.080;2024-01-10T03:20:02;3.77;;;3.43;;
66342;SDS011;53144;51.524;5.080;2024-01-10T03:22:29;4.75;;;3.53;;
66342;SDS011;53144;51.524;5.080;2024-01-10T03:24:56;3.50;;;3.17;;
66342;SDS011;53144;51.524;5.080;2024-01-10T03:27:21;5.60;;;3.90;;
66342;SDS011;53144;51.524;5.080;2024-01-10T03:29:47;2.70;;;2.50;;
66342;SDS011;53144;51.524;5.080;2024-01-10T03:32:12;4.38;;;3.40;;
66342;SDS011;53144;51.524;5.080;2024-01-10T03:37:03;4.68;;;3.80;;
66342;SDS011;53144;51.524;5.080;2024-01-10T03:39:29;3.67;;;3.30;;
66342;SDS011;53144;51.524;5.080;2024-01-10T03:41:55;4.25;;;3.17;;
66342;SDS011;53144;51.524;5.080;2024-01-10T03:44:21;3.85;;;3.40;;
66342;SDS011;53144;51.524;5.080;2024-01-10T03:46:46;3.47;;;3.15;;
66342;SDS011;53144;51.524;5.080;2024-01-10T03:49:12;4.78;;;3.28;;
66342;SDS011;53144;51.524;5.080;2024-01-10T03:51:37;4.95;;;3.60;;
66342;SDS011;53144;51.524;5.080;2024-01-10T03:54:05;3.88;;;3.17;;
66342;SDS011;53144;51.524;5.080;2024-01-10T03:56:31;4.60;;;2.90;;
66342;SDS011;53144;51.524;5.080;2024-01-10T03:58:56;6.20;;;3.40;;
66342;SDS011;53144;51.524;5.080;2024-01-10T04:01:22;3.60;;;2.97;;
66342;SDS011;53144;51.524;5.080;2024-01-10T04:03:51;3.28;;;2.85;;
66342;SDS011;53144;51.524;5.080;2024-01-10T04:06:16;4.03;;;3.28;;
66342;SDS011;53144;51.524;5.080;2024-01-10T04:08:41;4.50;;;3.60;;
66342;SDS011;53144;51.524;5.080;2024-01-10T04:11:07;4.45;;;3.30;;
66342;SDS011;53144;51.524;5.080;2024-01-10T04:17:18;3.25;;;2.95;;
66342;SDS011;53144;51.524;5.080;2024-01-10T04:19:44;3.35;;;3.05;;
66342;SDS011;53144;51.524;5.080;2024-01-10T04:22:09;4.05;;;3.60;;
66342;SDS011;53144;51.524;5.080;2024-01-10T04:24:35;3.78;;;3.47;;
66342;SDS011;53144;51.524;5.080;2024-01-10T04:27:00;3.30;;;3.00;;
66342;SDS011;53144;51.524;5.080;2024-01-10T04:29:25;4.80;;;3.10;;
66342;SDS011;53144;51.524;5.080;2024-01-10T04:31:51;3.60;;;2.85;;
66342;SDS011;53144;51.524;5.080;2024-01-10T04:34:16;4.20;;;3.30;;
66342;SDS011;53144;51.524;5.080;2024-01-10T04:36:43;3.35;;;2.83;;
66342;SDS011;53144;51.524;5.080;2024-01-10T04:39:08;4.57;;;2.90;;
66342;SDS011;53144;51.524;5.080;2024-01-10T04:41:34;3.80;;;3.10;;
66342;SDS011;53144;51.524;5.080;2024-01-10T04:43:59;4.40;;;2.90;;
66342;SDS011;53144;51.524;5.080;2024-01-10T04:46:25;4.47;;;3.17;;
66342;SDS011;53144;51.524;5.080;2024-01-10T04:48:50;3.72;;;3.08;;
66342;SDS011;53144;51.524;5.080;2024-01-10T04:51:15;4.23;;;3.13;;
66342;SDS011;53144;51.524;5.080;2024-01-10T04:53:41;5.65;;;3.47;;
66342;SDS011;53144;51.524;5.080;2024-01-10T04:56:06;4.00;;;3.03;;
66342;SDS011;53144;51.524;5.080;2024-01-10T04:58:32;3.38;;;2.92;;
66342;SDS011;53144;51.524;5.080;2024-01-10T05:00:58;3.30;;;3.00;;
66342;SDS011;53144;51.524;5.080;2024-01-10T05:03:23;3.05;;;2.75;;
66342;SDS011;53144;51.524;5.080;2024-01-10T05:05:49;5.00;;;3.00;;
66342;SDS011;53144;51.524;5.080;2024-01-10T05:08:14;5.63;;;3.10;;
66342;SDS011;53144;51.524;5.080;2024-01-10T05:10:40;4.85;;;3.10;;
66342;SDS011;53144;51.524;5.080;2024-01-10T05:13:05;4.93;;;3.10;;
66342;SDS011;53144;51.524;5.080;2024-01-10T05:15:31;4.03;;;3.15;;
66342;SDS011;53144;51.524;5.080;2024-01-10T05:17:56;4.93;;;3.28;;
66342;SDS011;53144;51.524;5.080;2024-01-10T05:20:22;4.55;;;3.47;;
66342;SDS011;53144;51.524;5.080;2024-01-10T05:22:47;4.20;;;3.25;;
66342;SDS011;53144;51.524;5.080;2024-01-10T05:25:13;4.80;;;2.78;;
66342;SDS011;53144;51.524;5.080;2024-01-10T05:27:39;5.45;;;3.20;;
66342;SDS011;53144;51.524;5.080;2024-01-10T05:30:04;2.40;;;2.20;;
66342;SDS011;53144;51.524;5.080;2024-01-10T05:32:30;4.03;;;3.00;;
66342;SDS011;53144;51.524;5.080;2024-01-10T05:34:56;6.53;;;3.38;;
66342;SDS011;53144;51.524;5.080;2024-01-10T05:37:21;2.90;;;2.53;;
66342;SDS011;53144;51.524;5.080;2024-01-10T05:39:47;5.15;;;3.75;;
66342;SDS011;53144;51.524;5.080;2024-01-10T05:42:12;3.22;;;2.60;;
66342;SDS011;53144;51.524;5.080;2024-01-10T05:44:39;4.40;;;3.10;;
66342;SDS011;53144;51.524;5.080;2024-01-10T05:47:05;5.22;;;3.38;;
66342;SDS011;53144;51.524;5.080;2024-01-10T05:49:30;3.45;;;2.92;;
66342;SDS011;53144;51.524;5.080;2024-01-10T05:51:57;5.10;;;3.17;;
66342;SDS011;53144;51.524;5.080;2024-01-10T05:54:23;5.85;;;3.30;;
66342;SDS011;53144;51.524;5.080;2024-01-10T05:56:48;3.83;;;2.97;;
66342;SDS011;53144;51.524;5.080;2024-01-10T05:59:14;4.82;;;3.13;;
66342;SDS011;53144;51.524;5.080;2024-01-10T06:01:41;4.88;;;3.35;;
66342;SDS011;53144;51.524;5.080;2024-01-10T06:04:07;4.93;;;3.13;;
66342;SDS011;53144;51.524;5.080;2024-01-10T06:06:32;3.95;;;3.47;;
66342;SDS011;53144;51.524;5.080;2024-01-10T06:08:58;4.18;;;2.70;;
66342;SDS011;53144;51.524;5.080;2024-01-10T06:11:23;6.03;;;3.22;;
66342;SDS011;53144;51.524;5.080;2024-01-10T06:13:49;2.58;;;2.38;;
66342;SDS011;53144;51.524;5.080;2024-01-10T06:16:14;2.55;;;2.35;;
66342;SDS011;53144;51.524;5.080;2024-01-10T06:19:06;4.28;;;2.85;;
66342;SDS011;53144;51.524;5.080;2024-01-10T06:21:57;4.72;;;3.13;;
66342;SDS011;53144;51.524;5.080;2024-01-10T06:26:51;4.03;;;2.90;;
66342;SDS011;53144;51.524;5.080;2024-01-10T06:29:17;3.45;;;2.47;;
66342;SDS011;53144;51.524;5.080;2024-01-10T06:34:08;4.63;;;2.63;;
66342;SDS011;53144;51.524;5.080;2024-01-10T06:36:34;2.75;;;2.55;;
66342;SDS011;53144;51.524;5.080;2024-01-10T06:39:00;5.85;;;3.35;;
66342;SDS011;53144;51.524;5.080;2024-01-10T06:41:26;3.95;;;3.00;;
66342;SDS011;53144;51.524;5.080;2024-01-10T06:43:51;8.35;;;3.65;;
66342;SDS011;53144;51.524;5.080;2024-01-10T06:46:17;4.38;;;3.25;;
66342;SDS011;53144;51.524;5.080;2024-01-10T06:48:46;6.00;;;3.25;;
66342;SDS011;53144;51.524;5.080;2024-01-10T06:51:12;4.05;;;3.50;;
66342;SDS011;53144;51.524;5.080;2024-01-10T06:53:38;3.13;;;2.63;;
66342;SDS011;53144;51.524;5.080;2024-01-10T06:56:04;4.82;;;3.58;;
66342;SDS011;53144;51.524;5.080;2024-01-10T06:58:30;7.63;;;2.88;;
66342;SDS011;53144;51.524;5.080;2024-01-10T07:00:56;4.93;;;3.75;;
66342;SDS011;53144;51.524;5.080;2024-01-10T07:03:21;3.58;;;2.83;;
66342;SDS011;53144;51.524;5.080;2024-01-10T07:05:47;6.20;;;3.67;;
66342;SDS011;53144;51.524;5.080;2024-01-10T07:08:12;5.60;;;3.10;;
66342;SDS011;53144;51.524;5.080;2024-01-10T07:10:39;5.55;;;3.42;;
66342;SDS011;53144;51.524;5.080;2024-01-10T07:13:04;4.47;;;3.40;;
66342;SDS011;53144;51.524;5.080;2024-01-10T07:22:00;4.30;;;2.83;;
66342;SDS011;53144;51.524;5.080;2024-01-10T07:24:26;5.97;;;3.47;;
66342;SDS011;53144;51.524;5.080;2024-01-10T07:26:51;6.82;;;3.28;;
66342;SDS011;53144;51.524;5.080;2024-01-10T07:29:17;4.07;;;3.25;;
66342;SDS011;53144;51.524;5.080;2024-01-10T07:31:42;4.35;;;3.13;;
66342;SDS011;53144;51.524;5.080;2024-01-10T07:34:08;4.20;;;3.28;;
66342;SDS011;53144;51.524;5.080;2024-01-10T07:36:33;5.03;;;3.63;;
66342;SDS011;53144;51.524;5.080;2024-01-10T07:39:05;5.80;;;3.40;;
66342;SDS011;53144;51.524;5.080;2024-01-10T07:41:31;4.30;;;3.25;;
66342;SDS011;53144;51.524;5.080;2024-01-10T07:46:22;4.20;;;3.40;;
66342;SDS011;53144;51.524;5.080;2024-01-10T07:48:48;5.75;;;3.72;;
66342;SDS011;53144;51.524;5.080;2024-01-10T07:51:14;4.65;;;2.78;;
66342;SDS011;53144;51.524;5.080;2024-01-10T07:53:39;4.53;;;3.05;;
66342;SDS011;53144;51.524;5.080;2024-01-10T07:56:05;4.32;;;3.10;;
66342;SDS011;53144;51.524;5.080;2024-01-10T07:58:31;4.82;;;3.75;;
66342;SDS011;53144;51.524;5.080;2024-01-10T08:00:56;6.05;;;4.03;;
66342;SDS011;53144;51.524;5.080;2024-01-10T08:03:22;5.30;;;4.03;;
66342;SDS011;53144;51.524;5.080;2024-01-10T08:05:47;4.25;;;3.22;;
66342;SDS011;53144;51.524;5.080;2024-01-10T08:08:12;7.18;;;4.13;;
66342;SDS011;53144;51.524;5.080;2024-01-10T08:10:38;4.82;;;3.63;;
66342;SDS011;53144;51.524;5.080;2024-01-10T08:13:05;3.22;;;2.92;;
66342;SDS011;53144;51.524;5.080;2024-01-10T08:15:30;5.82;;;3.90;;
66342;SDS011;53144;51.524;5.080;2024-01-10T08:20:22;3.97;;;3.17;;
66342;SDS011;53144;51.524;5.080;2024-01-10T08:22:47;4.45;;;3.33;;
66342;SDS011;53144;51.524;5.080;2024-01-10T08:25:14;5.30;;;3.80;;
66342;SDS011;53144;51.524;5.080;2024-01-10T08:30:06;4.57;;;3.47;;
66342;SDS011;53144;51.524;5.080;2024-01-10T08:32:35;5.78;;;3.13;;
66342;SDS011;53144;51.524;5.080;2024-01-10T08:35:01;6.90;;;4.40;;
66342;SDS011;53144;51.524;5.080;2024-01-10T08:37:29;5.72;;;3.47;;
66342;SDS011;53144;51.524;5.080;2024-01-10T08:39:55;6.05;;;3.95;;
66342;SDS011;53144;51.524;5.080;2024-01-10T08:42:21;5.57;;;3.67;;
66342;SDS011;53144;51.524;5.080;2024-01-10T08:44:46;4.43;;;2.85;;
66342;SDS011;53144;51.524;5.080;2024-01-10T08:47:11;4.85;;;3.25;;
66342;SDS011;53144;51.524;5.080;2024-01-10T08:49:37;6.82;;;4.30;;
66342;SDS011;53144;51.524;5.080;2024-01-10T08:52:03;4.53;;;3.65;;
66342;SDS011;53144;51.524;5.080;2024-01-10T08:54:29;7.20;;;4.65;;
66342;SDS011;53144;51.524;5.080;2024-01-10T08:56:54;5.95;;;3.97;;
66342;SDS011;53144;51.524;5.080;2024-01-10T08:59:20;5.20;;;3.90;;
66342;SDS011;53144;51.524;5.080;2024-01-10T09:01:46;6.00;;;4.07;;
66342;SDS011;53144;51.524;5.080;2024-01-10T09:04:11;6.05;;;4.22;;
66342;SDS011;53144;51.524;5.080;2024-01-10T09:06:37;7.15;;;4.60;;
66342;SDS011;53144;51.524;5.080;2024-01-10T09:09:02;4.07;;;3.00;;
66342;SDS011;53144;51.524;5.080;2024-01-10T09:11:28;7.80;;;4.30;;
66342;SDS011;53144;51.524;5.080;2024-01-10T09:13:54;6.45;;;3.90;;
66342;SDS011;53144;51.524;5.080;2024-01-10T09:19:11;4.55;;;3.58;;
66342;SDS011;53144;51.524;5.080;2024-01-10T09:21:36;6.45;;;4.30;;
66342;SDS011;53144;51.524;5.080;2024-01-10T09:24:02;5.53;;;3.70;;
66342;SDS011;53144;51.524;5.080;2024-01-10T09:26:33;4.85;;;2.83;;
66342;SDS011;53144;51.524;5.080;2024-01-10T09:28:58;6.78;;;4.63;;
66342;SDS011;53144;51.524;5.080;2024-01-10T09:31:24;8.48;;;4.85;;
66342;SDS011;53144;51.524;5.080;2024-01-10T09:33:49;5.78;;;3.65;;
66342;SDS011;53144;51.524;5.080;2024-01-10T09:36:15;7.43;;;4.68;;
66342;SDS011;53144;51.524;5.080;2024-01-10T09:38:40;7.73;;;4.57;;
66342;SDS011;53144;51.524;5.080;2024-01-10T09:41:06;5.15;;;4.03;;
66342;SDS011;53144;51.524;5.080;2024-01-10T09:43:32;8.38;;;4.75;;
66342;SDS011;53144;51.524;5.080;2024-01-10T09:46:01;7.03;;;4.30;;
66342;SDS011;53144;51.524;5.080;2024-01-10T09:48:30;5.72;;;3.63;;
66342;SDS011;53144;51.524;5.080;2024-01-10T09:50:55;4.95;;;4.25;;
66342;SDS011;53144;51.524;5.080;2024-01-10T09:53:22;6.57;;;4.70;;
66342;SDS011;53144;51.524;5.080;2024-01-10T09:55:49;6.18;;;4.80;;
66342;SDS011;53144;51.524;5.080;2024-01-10T09:58:14;6.50;;;4.57;;
66342;SDS011;53144;51.524;5.080;2024-01-10T10:03:07;6.60;;;4.70;;
66342;SDS011;53144;51.524;5.080;2024-01-10T10:05:36;6.43;;;4.97;;
66342;SDS011;53144;51.524;5.080;2024-01-10T10:08:02;8.02;;;5.15;;
66342;SDS011;53144;51.524;5.080;2024-01-10T10:10:28;7.22;;;5.15;;
66342;SDS011;53144;51.524;5.080;2024-01-10T10:12:54;8.40;;;4.88;;
66342;SDS011;53144;51.524;5.080;2024-01-10T10:15:20;7.60;;;4.63;;
66342;SDS011;53144;51.524;5.080;2024-01-10T10:17:47;6.05;;;4.60;;
66342;SDS011;53144;51.524;5.080;2024-01-10T10:20:40;7.25;;;4.80;;
66342;SDS011;53144;51.524;5.080;2024-01-10T10:23:30;6.57;;;5.00;;
66342;SDS011;53144;51.524;5.080;2024-01-10T10:26:22;5.93;;;4.53;;
66342;SDS011;53144;51.524;5.080;2024-01-10T10:29:16;6.97;;;5.05;;
66342;SDS011;53144;51.524;5.080;2024-01-10T10:32:07;6.78;;;4.80;;
66342;SDS011;53144;51.524;5.080;2024-01-10T10:34:57;7.85;;;5.18;;
66342;SDS011;53144;51.524;5.080;2024-01-10T10:37:24;8.75;;;5.47;;
66342;SDS011;53144;51.524;5.080;2024-01-10T10:39:49;6.77;;;5.00;;
66342;SDS011;53144;51.524;5.080;2024-01-10T10:42:15;6.28;;;5.07;;
66342;SDS011;53144;51.524;5.080;2024-01-10T10:44:41;6.35;;;4.97;;
66342;SDS011;53144;51.524;5.080;2024-01-10T10:47:08;6.88;;;5.47;;
66342;SDS011;53144;51.524;5.080;2024-01-10T10:49:35;3.25;;;2.97;;
66342;SDS011;53144;51.524;5.080;2024-01-10T10:52:11;5.90;;;4.68;;
66342;SDS011;53144;51.524;5.080;2024-01-10T10:54:37;7.97;;;5.47;;
66342;SDS011;53144;51.524;5.080;2024-01-10T10:57:04;8.68;;;5.25;;
66342;SDS011;53144;51.524;5.080;2024-01-10T10:59:30;6.90;;;5.30;;
66342;SDS011;53144;51.524;5.080;2024-01-10T11:01:59;7.75;;;4.70;;
66342;SDS011;53144;51.524;5.080;2024-01-10T11:04:24;7.18;;;4.72;;
66342;SDS011;53144;51.524;5.080;2024-01-10T11:09:16;8.23;;;5.15;;
66342;SDS011;53144;51.524;5.080;2024-01-10T11:11:53;8.63;;;5.20;;
66342;SDS011;53144;51.524;5.080;2024-01-10T11:15:29;6.15;;;4.40;;
66342;SDS011;53144;51.524;5.080;2024-01-10T11:18:33;6.38;;;4.60;;
66342;SDS011;53144;51.524;5.080;2024-01-10T11:21:24;7.60;;;4.80;;
66342;SDS011;53144;51.524;5.080;2024-01-10T11:24:00;6.97;;;4.80;;
66342;SDS011;53144;51.524;5.080;2024-01-10T11:26:26;9.07;;;5.78;;
66342;SDS011;53144;51.524;5.080;2024-01-10T11:28:52;8.23;;;5.45;;
66342;SDS011;53144;51.524;5.080;2024-01-10T11:31:27;7.68;;;4.80;;
66342;SDS011;53144;51.524;5.080;2024-01-10T11:33:55;7.40;;;4.88;;
66342;SDS011;53144;51.524;5.080;2024-01-10T11:36:25;7.95;;;5.18;;
66342;SDS011;53144;51.524;5.080;2024-01-10T11:41:36;7.63;;;5.33;;
66342;SDS011;53144;51.524;5.080;2024-01-10T11:46:34;8.77;;;5.53;;
66342;SDS011;53144;51.524;5.080;2024-01-10T11:49:00;8.75;;;5.60;;
66342;SDS011;53144;51.524;5.080;2024-01-10T11:51:25;7.47;;;5.33;;
66342;SDS011;53144;51.524;5.080;2024-01-10T11:53:51;6.97;;;4.78;;
66342;SDS011;53144;51.524;5.080;2024-01-10T11:56:19;7.07;;;4.88;;
66342;SDS011;53144;51.524;5.080;2024-01-10T11:59:03;8.05;;;4.57;;
66342;SDS011;53144;51.524;5.080;2024-01-10T12:01:33;8.98;;;5.75;;
66342;SDS011;53144;51.524;5.080;2024-01-10T12:04:00;7.00;;;4.78;;
66342;SDS011;53144;51.524;5.080;2024-01-10T12:06:26;11.13;;;5.90;;
66342;SDS011;53144;51.524;5.080;2024-01-10T12:08:52;6.78;;;4.70;;
66342;SDS011;53144;51.524;5.080;2024-01-10T12:11:21;6.68;;;5.13;;
66342;SDS011;53144;51.524;5.080;2024-01-10T12:13:47;8.27;;;5.68;;
66342;SDS011;53144;51.524;5.080;2024-01-10T12:16:13;9.32;;;5.10;;
66342;SDS011;53144;51.524;5.080;2024-01-10T12:18:42;6.90;;;5.10;;
66342;SDS011;53144;51.524;5.080;2024-01-10T12:23:37;9.32;;;5.50;;
66342;SDS011;53144;51.524;5.080;2024-01-10T12:26:03;7.75;;;5.43;;
66342;SDS011;53144;51.524;5.080;2024-01-10T12:28:32;9.02;;;5.32;;
66342;SDS011;53144;51.524;5.080;2024-01-10T12:30:58;9.27;;;5.85;;
66342;SDS011;53144;51.524;5.080;2024-01-10T12:33:24;8.18;;;5.45;;
66342;SDS011;53144;51.524;5.080;2024-01-10T12:38:40;9.30;;;6.50;;
66342;SDS011;53144;51.524;5.080;2024-01-10T12:41:05;8.80;;;5.38;;
66342;SDS011;53144;51.524;5.080;2024-01-10T12:43:33;8.15;;;5.57;;
66342;SDS011;53144;51.524;5.080;2024-01-10T12:46:06;8.15;;;5.32;;
66342;SDS011;53144;51.524;5.080;2024-01-10T12:48:33;7.70;;;4.88;;
66342;SDS011;53144;51.524;5.080;2024-01-10T12:51:05;7.53;;;5.50;;
66342;SDS011;53144;51.524;5.080;2024-01-10T12:53:33;6.18;;;4.40;;
66342;SDS011;53144;51.524;5.080;2024-01-10T12:56:03;6.70;;;5.38;;
66342;SDS011;53144;51.524;5.080;2024-01-10T12:58:30;8.32;;;5.80;;
66342;SDS011;53144;51.524;5.080;2024-01-10T13:00:56;6.68;;;5.28;;
66342;SDS011;53144;51.524;5.080;2024-01-10T13:03:22;9.55;;;5.57;;
66342;SDS011;53144;51.524;5.080;2024-01-10T13:05:51;9.45;;;5.45;;
66342;SDS011;53144;51.524;5.080;2024-01-10T13:08:19;10.23;;;5.80;;
66342;SDS011;53144;51.524;5.080;2024-01-10T13:10:45;8.18;;;5.32;;
66342;SDS011;53144;51.524;5.080;2024-01-10T13:13:12;8.40;;;5.90;;
66342;SDS011;53144;51.524;5.080;2024-01-10T13:15:38;7.68;;;5.30;;
66342;SDS011;53144;51.524;5.080;2024-01-10T13:25:05;9.48;;;5.38;;
66342;SDS011;53144;51.524;5.080;2024-01-10T13:27:31;9.02;;;5.40;;
66342;SDS011;53144;51.524;5.080;2024-01-10T13:29:57;8.10;;;5.28;;
66342;SDS011;53144;51.524;5.080;2024-01-10T13:32:22;8.88;;;6.47;;
66342;SDS011;53144;51.524;5.080;2024-01-10T13:34:51;10.52;;;6.13;;
66342;SDS011;53144;51.524;5.080;2024-01-10T13:37:16;9.65;;;5.47;;
66342;SDS011;53144;51.524;5.080;2024-01-10T13:39:42;16.17;;;9.13;;
66342;SDS011;53144;51.524;5.080;2024-01-10T13:42:07;14.65;;;7.60;;
66342;SDS011;53144;51.524;5.080;2024-01-10T13:44:35;10.77;;;7.47;;
66342;SDS011;53144;51.524;5.080;2024-01-10T13:47:01;9.73;;;5.75;;
66342;SDS011;53144;51.524;5.080;2024-01-10T13:49:28;9.13;;;6.05;;
66342;SDS011;53144;51.524;5.080;2024-01-10T13:51:54;8.25;;;6.15;;
66342;SDS011;53144;51.524;5.080;2024-01-10T13:54:19;7.55;;;5.22;;
66342;SDS011;53144;51.524;5.080;2024-01-10T13:56:46;10.40;;;5.80;;
66342;SDS011;53144;51.524;5.080;2024-01-10T13:59:11;8.40;;;6.10;;
66342;SDS011;53144;51.524;5.080;2024-01-10T14:01:37;9.07;;;6.65;;
66342;SDS011;53144;51.524;5.080;2024-01-10T14:04:02;9.00;;;5.78;;
66342;SDS011;53144;51.524;5.080;2024-01-10T14:06:29;11.95;;;6.93;;
66342;SDS011;53144;51.524;5.080;2024-01-10T14:08:54;4.75;;;4.32;;
66342;SDS011;53144;51.524;5.080;2024-01-10T14:11:20;14.73;;;7.55;;
66342;SDS011;53144;51.524;5.080;2024-01-10T14:13:45;12.13;;;7.53;;
66342;SDS011;53144;51.524;5.080;2024-01-10T14:16:11;12.80;;;8.00;;
66342;SDS011;53144;51.524;5.080;2024-01-10T14:21:52;11.57;;;7.50;;
66342;SDS011;53144;51.524;5.080;2024-01-10T14:24:17;11.80;;;6.63;;
66342;SDS011;53144;51.524;5.080;2024-01-10T14:26:46;12.10;;;7.65;;
66342;SDS011;53144;51.524;5.080;2024-01-10T14:29:12;10.00;;;7.07;;
66342;SDS011;53144;51.524;5.080;2024-01-10T14:31:37;12.32;;;7.65;;
66342;SDS011;53144;51.524;5.080;2024-01-10T14:34:04;13.57;;;7.53;;
66342;SDS011;53144;51.524;5.080;2024-01-10T14:36:31;13.95;;;8.45;;
66342;SDS011;53144;51.524;5.080;2024-01-10T14:38:56;14.63;;;7.72;;
66342;SDS011;53144;51.524;5.080;2024-01-10T14:41:21;11.83;;;6.87;;
66342;SDS011;53144;51.524;5.080;2024-01-10T14:43:47;13.15;;;6.93;;
66342;SDS011;53144;51.524;5.080;2024-01-10T14:46:13;17.65;;;7.93;;
66342;SDS011;53144;51.524;5.080;2024-01-10T14:48:38;10.20;;;7.00;;
66342;SDS011;53144;51.524;5.080;2024-01-10T14:51:04;12.57;;;6.03;;
66342;SDS011;53144;51.524;5.080;2024-01-10T14:53:29;14.90;;;8.05;;
66342;SDS011;53144;51.524;5.080;2024-01-10T14:55:55;11.02;;;5.82;;
66342;SDS011;53144;51.524;5.080;2024-01-10T14:58:21;11.80;;;7.72;;
66342;SDS011;53144;51.524;5.080;2024-01-10T15:00:49;12.85;;;7.43;;
66342;SDS011;53144;51.524;5.080;2024-01-10T15:03:15;13.23;;;6.88;;
66342;SDS011;53144;51.524;5.080;2024-01-10T15:05:41;10.30;;;6.45;;
66342;SDS011;53144;51.524;5.080;2024-01-10T15:08:06;15.18;;;8.00;;
66342;SDS011;53144;51.524;5.080;2024-01-10T15:10:34;13.25;;;7.25;;
66342;SDS011;53144;51.524;5.080;2024-01-10T15:13:00;13.48;;;7.63;;
66342;SDS011;53144;51.524;5.080;2024-01-10T15:15:26;13.38;;;7.78;;
66342;SDS011;53144;51.524;5.080;2024-01-10T15:17:51;6.38;;;5.00;;
66342;SDS011;53144;51.524;5.080;2024-01-10T15:20:41;13.98;;;7.03;;
66342;SDS011;53144;51.524;5.080;2024-01-10T15:23:31;9.73;;;6.22;;
66342;SDS011;53144;51.524;5.080;2024-01-10T15:26:23;11.88;;;6.93;;
66342;SDS011;53144;51.524;5.080;2024-01-10T15:29:14;10.18;;;5.40;;
66342;SDS011;53144;51.524;5.080;2024-01-10T15:31:40;12.05;;;6.97;;
66342;SDS011;53144;51.524;5.080;2024-01-10T15:34:05;7.60;;;4.53;;
66342;SDS011;53144;51.524;5.080;2024-01-10T15:36:31;22.10;;;6.75;;
66342;SDS011;53144;51.524;5.080;2024-01-10T15:38:57;13.02;;;8.40;;
66342;SDS011;53144;51.524;5.080;2024-01-10T15:41:22;11.38;;;6.78;;
66342;SDS011;53144;51.524;5.080;2024-01-10T15:43:48;14.10;;;7.68;;
66342;SDS011;53144;51.524;5.080;2024-01-10T15:46:17;10.07;;;7.32;;